Time;durP1;ratioP1;P1;durP2;ratioP2;P2;SDS_P1;SDS_P2;PMS_P1;PMS_P2;Temp;Humidity;BMP_temperature;BMP_pressure;BME280_temperature;BME280_humidity;BME280_pressure;Samples;Min_cycle;Max_cycle;Signal;HPM_P1;HPM_P2
2021/10/12 00:01:41;;;;;;;23.03;21.13;;;10.50;99.90;;;;;;5111219;28;20464;-68
2021/10/12 00:04:07;;;;;;;28.17;22.33;;;10.50;99.90;;;;;;5113629;28;20530;-68
2021/10/12 00:06:34;;;;;;;24.43;21.90;;;10.40;99.90;;;;;;5112237;28;20472;-69
2021/10/12 00:09:01;;;;;;;24.00;22.20;;;10.50;99.90;;;;;;5111805;28;20467;-68
2021/10/12 00:11:30;;;;;;;26.37;23.00;;;10.50;99.90;;;;;;5110066;28;20445;-70
2021/10/12 00:13:57;;;;;;;26.13;23.87;;;10.50;99.90;;;;;;5113056;27;20502;-70
2021/10/12 00:16:24;;;;;;;26.83;24.50;;;10.40;99.90;;;;;;5116136;27;20462;-69
2021/10/12 00:18:51;;;;;;;25.57;23.37;;;10.50;99.90;;;;;;5111010;27;20492;-68
2021/10/12 00:21:18;;;;;;;29.10;25.43;;;10.50;99.90;;;;;;5115953;27;20496;-71
2021/10/12 00:23:45;;;;;;;31.57;28.37;;;10.40;99.90;;;;;;5113607;27;20457;-70
2021/10/12 00:26:12;;;;;;;31.73;28.87;;;10.40;99.90;;;;;;5113963;27;20464;-69
2021/10/12 00:28:42;;;;;;;31.87;28.87;;;10.50;99.90;;;;;;5118116;27;21026;-68
2021/10/12 00:31:09;;;;;;;29.10;26.40;;;10.40;99.90;;;;;;5115883;27;20456;-68
2021/10/12 00:33:36;;;;;;;29.40;26.53;;;10.40;99.90;;;;;;5114605;27;20885;-71
2021/10/12 00:36:04;;;;;;;29.67;26.70;;;10.40;99.90;;;;;;5123417;27;20456;-69
2021/10/12 00:38:31;;;;;;;30.47;27.63;;;10.40;99.90;;;;;;5117100;27;21008;-68
2021/10/12 00:40:59;;;;;;;29.97;27.07;;;10.40;99.90;;;;;;5120539;27;20468;-72
2021/10/12 00:43:27;;;;;;;31.53;28.70;;;10.40;99.90;;;;;;5121889;27;20461;-73
2021/10/12 00:45:58;;;;;;;29.73;26.87;;;10.40;99.90;;;;;;5120370;27;20460;-68
2021/10/12 00:48:27;;;;;;;30.63;27.60;;;10.40;99.90;;;;;;5107506;27;21020;-68
2021/10/12 00:50:54;;;;;;;29.80;26.50;;;10.40;99.90;;;;;;5114558;27;20457;-69
2021/10/12 00:53:21;;;;;;;30.93;27.87;;;10.40;99.90;;;;;;5122904;27;20924;-68
2021/10/12 00:55:48;;;;;;;29.67;27.07;;;10.30;99.90;;;;;;5116315;27;20461;-68
2021/10/12 00:58:16;;;;;;;33.90;28.73;;;10.30;99.90;;;;;;5123134;27;20488;-68
2021/10/12 01:00:43;;;;;;;32.67;29.10;;;10.40;99.90;;;;;;5115964;27;21178;-70
2021/10/12 01:03:12;;;;;;;37.73;29.00;;;10.40;99.90;;;;;;5116380;27;20448;-69
2021/10/12 01:05:39;;;;;;;35.70;28.40;;;10.40;99.90;;;;;;5118086;27;20463;-69
2021/10/12 01:08:06;;;;;;;30.03;26.90;;;10.40;99.90;;;;;;5117968;27;20496;-68
2021/10/12 01:10:33;;;;;;;29.47;26.60;;;10.40;99.90;;;;;;5114929;27;20455;-68
2021/10/12 01:13:02;;;;;;;28.93;26.47;;;10.40;99.90;;;;;;5118065;27;20534;-71
2021/10/12 01:15:30;;;;;;;37.50;29.00;;;10.30;99.90;;;;;;5118810;27;20460;-68
2021/10/12 01:17:57;;;;;;;29.80;27.00;;;10.40;99.90;;;;;;5116194;27;20534;-68
2021/10/12 01:20:26;;;;;;;33.23;27.30;;;10.40;99.90;;;;;;5118449;27;20463;-68
2021/10/12 01:22:56;;;;;;;31.03;27.97;;;10.40;99.90;;;;;;5118628;27;20543;-70
2021/10/12 01:25:23;;;;;;;30.37;27.43;;;10.40;99.90;;;;;;5118030;27;20539;-70
2021/10/12 01:27:50;;;;;;;31.03;27.73;;;10.40;99.90;;;;;;5120233;27;20460;-69
2021/10/12 01:30:17;;;;;;;31.20;27.93;;;10.30;99.90;;;;;;5117277;27;20453;-70
2021/10/12 01:32:46;;;;;;;35.23;28.93;;;10.30;99.90;;;;;;5118084;27;20532;-68
2021/10/12 01:35:15;;;;;;;38.27;29.70;;;10.30;99.90;;;;;;5116450;27;20463;-69
2021/10/12 01:37:42;;;;;;;33.23;29.70;;;10.30;99.90;;;;;;5121555;27;20453;-68
2021/10/12 01:40:13;;;;;;;32.87;29.97;;;10.40;99.90;;;;;;5119845;27;20491;-69
2021/10/12 01:42:41;;;;;;;36.57;31.30;;;10.40;99.90;;;;;;5113439;27;20457;-70
2021/10/12 01:45:10;;;;;;;33.23;29.97;;;10.40;99.90;;;;;;5116643;27;20457;-69
2021/10/12 01:47:38;;;;;;;32.80;29.67;;;10.30;99.90;;;;;;5112456;27;20967;-71
2021/10/12 01:50:07;;;;;;;36.17;30.67;;;10.30;99.90;;;;;;5116840;27;20488;-69
2021/10/12 01:52:35;;;;;;;36.80;30.27;;;10.30;99.90;;;;;;5113372;27;20460;-72
2021/10/12 01:55:02;;;;;;;35.00;31.07;;;10.30;99.90;;;;;;5125183;27;20457;-68
2021/10/12 01:57:30;;;;;;;39.63;32.40;;;10.30;99.90;;;;;;5111670;27;20455;-70
2021/10/12 01:59:57;;;;;;;32.67;29.80;;;10.40;99.90;;;;;;5123723;27;20508;-68
2021/10/12 02:02:24;;;;;;;31.67;28.90;;;10.40;99.90;;;;;;5108657;27;20463;-69
2021/10/12 02:04:50;;;;;;;33.40;29.90;;;10.30;99.90;;;;;;5113953;27;20465;-71
2021/10/12 02:07:17;;;;;;;38.83;31.37;;;10.30;99.90;;;;;;5115272;27;20539;-69
2021/10/12 02:09:44;;;;;;;34.07;30.63;;;10.40;99.90;;;;;;5116347;27;20466;-69
2021/10/12 02:12:12;;;;;;;36.60;31.30;;;10.40;99.90;;;;;;5121073;27;20830;-71
2021/10/12 02:14:40;;;;;;;35.20;31.50;;;10.30;99.90;;;;;;5111853;27;20453;-70
2021/10/12 02:17:07;;;;;;;35.20;32.07;;;10.30;99.90;;;;;;5121944;27;20965;-70
2021/10/12 02:19:34;;;;;;;33.80;30.90;;;10.30;99.90;;;;;;5116976;27;20485;-69
2021/10/12 02:22:01;;;;;;;36.27;31.50;;;10.30;99.90;;;;;;5114063;27;20459;-68
2021/10/12 02:24:28;;;;;;;35.10;31.47;;;10.30;99.90;;;;;;5119997;27;20552;-69
2021/10/12 02:26:55;;;;;;;33.53;30.23;;;10.30;99.90;;;;;;5116516;27;20866;-69
2021/10/12 02:29:22;;;;;;;38.90;29.83;;;10.30;99.90;;;;;;5121005;27;20465;-70
2021/10/12 02:31:50;;;;;;;32.83;29.60;;;10.30;99.90;;;;;;5116252;27;20467;-71
2021/10/12 02:34:17;;;;;;;35.57;30.10;;;10.20;99.90;;;;;;5115774;27;20523;-71
2021/10/12 02:36:44;;;;;;;32.60;29.23;;;10.20;99.90;;;;;;5115919;27;20461;-72
2021/10/12 02:39:11;;;;;;;32.03;29.10;;;10.20;99.90;;;;;;5120823;27;20496;-69
2021/10/12 02:41:38;;;;;;;31.77;28.40;;;10.10;99.90;;;;;;5122379;27;20470;-70
2021/10/12 02:44:06;;;;;;;31.27;28.37;;;10.10;99.90;;;;;;5115683;27;20461;-68
2021/10/12 02:46:33;;;;;;;32.13;29.00;;;10.00;99.90;;;;;;5115653;27;20457;-69
2021/10/12 02:49:01;;;;;;;32.60;29.53;;;10.00;99.90;;;;;;5114708;27;20481;-69
2021/10/12 02:51:28;;;;;;;32.70;29.50;;;10.00;99.90;;;;;;5114931;27;20487;-72
2021/10/12 02:53:56;;;;;;;36.73;30.50;;;10.00;99.90;;;;;;5118143;27;21587;-70
2021/10/12 02:56:23;;;;;;;31.93;28.70;;;10.10;99.90;;;;;;5114572;28;21143;-70
2021/10/12 02:58:49;;;;;;;33.83;30.33;;;10.00;99.90;;;;;;5124134;27;20574;-69
2021/10/12 03:01:16;;;;;;;35.23;31.27;;;10.10;99.90;;;;;;5112733;28;20494;-70
2021/10/12 03:03:43;;;;;;;34.20;30.73;;;10.10;99.90;;;;;;5107163;28;20488;-70
2021/10/12 03:06:13;;;;;;;46.50;30.53;;;10.00;99.90;;;;;;5113293;28;20463;-69
2021/10/12 03:08:40;;;;;;;33.70;30.63;;;10.00;99.90;;;;;;5114859;28;20456;-69
2021/10/12 03:11:08;;;;;;;34.33;31.10;;;10.00;99.90;;;;;;5122187;28;20822;-69
2021/10/12 03:13:35;;;;;;;37.70;32.83;;;10.00;99.90;;;;;;5118617;28;20473;-69
2021/10/12 03:16:02;;;;;;;38.27;30.93;;;10.00;99.90;;;;;;5115829;28;20812;-69
2021/10/12 03:18:30;;;;;;;35.53;30.60;;;10.00;99.90;;;;;;5117611;28;20809;-70
2021/10/12 03:20:57;;;;;;;43.50;30.93;;;10.10;99.90;;;;;;5119680;28;20467;-69
2021/10/12 03:23:26;;;;;;;31.97;29.07;;;10.10;99.90;;;;;;5122265;28;20468;-71
2021/10/12 03:25:53;;;;;;;32.50;29.33;;;10.10;99.90;;;;;;5116053;28;20900;-69
2021/10/12 03:28:20;;;;;;;32.20;29.40;;;10.10;99.90;;;;;;5114939;28;20963;-70
2021/10/12 03:30:47;;;;;;;35.67;29.30;;;10.00;99.90;;;;;;5109734;28;20485;-71
2021/10/12 03:33:15;;;;;;;33.03;29.30;;;9.90;99.90;;;;;;5110627;28;20464;-69
2021/10/12 03:35:46;;;;;;;36.23;29.00;;;9.90;99.90;;;;;;5110502;28;21055;-69
2021/10/12 03:38:13;;;;;;;31.70;28.23;;;10.00;99.90;;;;;;5106151;28;20499;-69
2021/10/12 03:40:42;;;;;;;41.83;29.90;;;9.90;99.90;;;;;;5109159;28;20489;-71
2021/10/12 03:43:09;;;;;;;31.43;28.60;;;9.90;99.90;;;;;;5114194;28;20453;-68
2021/10/12 03:45:36;;;;;;;30.93;28.23;;;9.90;99.90;;;;;;5109573;28;20981;-68
2021/10/12 03:48:03;;;;;;;30.13;27.10;;;10.00;99.90;;;;;;5116996;27;20488;-68
2021/10/12 03:50:30;;;;;;;30.90;27.50;;;10.00;99.90;;;;;;5114606;27;20496;-69
2021/10/12 03:52:58;;;;;;;30.00;27.40;;;10.00;99.90;;;;;;5123792;27;20557;-68
2021/10/12 03:55:24;;;;;;;30.43;27.70;;;10.00;99.90;;;;;;5123986;27;20455;-71
2021/10/12 03:57:53;;;;;;;39.50;27.20;;;10.00;99.90;;;;;;5118924;27;20472;-68
2021/10/12 04:00:20;;;;;;;31.73;28.57;;;10.00;99.90;;;;;;5127495;27;20502;-68
2021/10/12 04:02:47;;;;;;;29.73;26.90;;;10.00;99.90;;;;;;5104796;27;20549;-68
2021/10/12 04:05:15;;;;;;;29.00;26.50;;;10.00;99.90;;;;;;5113956;27;20507;-69
2021/10/12 04:07:42;;;;;;;30.60;27.83;;;10.00;99.90;;;;;;5108986;27;20464;-68
2021/10/12 04:10:10;;;;;;;33.53;27.40;;;10.00;99.90;;;;;;5111502;27;20551;-69
2021/10/12 04:12:37;;;;;;;31.43;27.10;;;10.00;99.90;;;;;;5119923;27;20554;-68
2021/10/12 04:15:06;;;;;;;31.03;27.87;;;10.00;99.90;;;;;;5114698;27;20953;-68
2021/10/12 04:17:33;;;;;;;33.73;27.80;;;10.00;99.90;;;;;;5100636;27;20453;-68
2021/10/12 04:20:00;;;;;;;29.67;27.00;;;10.10;99.90;;;;;;5116007;27;20575;-69
2021/10/12 04:22:27;;;;;;;30.40;27.43;;;10.00;99.90;;;;;;5112939;27;20498;-69
2021/10/12 04:24:55;;;;;;;31.13;27.97;;;10.00;99.90;;;;;;5107142;27;20961;-68
2021/10/12 04:27:22;;;;;;;34.07;27.70;;;10.00;99.90;;;;;;5113746;27;20464;-68
2021/10/12 04:29:49;;;;;;;31.43;28.40;;;10.00;99.90;;;;;;5083453;28;20475;-68
2021/10/12 04:32:17;;;;;;;33.17;28.23;;;10.00;99.90;;;;;;5089423;28;20542;-68
2021/10/12 04:34:45;;;;;;;28.77;26.23;;;10.00;99.90;;;;;;5097439;28;20473;-69
2021/10/12 04:37:12;;;;;;;31.33;28.10;;;10.00;99.90;;;;;;5093140;28;20994;-69
2021/10/12 04:39:39;;;;;;;36.20;28.33;;;10.10;99.90;;;;;;5102644;28;20481;-68
2021/10/12 04:42:06;;;;;;;30.83;27.63;;;10.10;99.90;;;;;;5097623;28;21605;-69
2021/10/12 04:44:33;;;;;;;30.13;27.10;;;10.10;99.90;;;;;;5097832;28;20471;-68
2021/10/12 04:47:00;;;;;;;29.03;26.33;;;10.10;99.90;;;;;;5102712;28;20508;-68
2021/10/12 04:49:28;;;;;;;28.43;25.43;;;10.10;99.90;;;;;;5100018;28;20486;-71
2021/10/12 04:51:55;;;;;;;29.00;26.10;;;10.00;99.90;;;;;;5098240;28;21009;-68
2021/10/12 04:54:22;;;;;;;30.17;27.10;;;10.00;99.90;;;;;;5092343;28;20454;-68
2021/10/12 04:56:49;;;;;;;28.13;25.30;;;10.10;99.90;;;;;;5090966;28;20453;-71
2021/10/12 04:59:16;;;;;;;30.10;26.10;;;10.10;99.90;;;;;;5093361;28;20845;-68
2021/10/12 05:01:43;;;;;;;28.53;25.57;;;10.10;99.90;;;;;;5089730;28;20459;-68
2021/10/12 05:04:10;;;;;;;32.80;25.90;;;10.00;99.90;;;;;;5097142;28;20497;-69
2021/10/12 05:06:38;;;;;;;27.57;25.43;;;10.00;99.90;;;;;;5096635;28;20461;-68
2021/10/12 05:09:05;;;;;;;38.60;28.17;;;10.00;99.90;;;;;;5087631;28;21767;-68
2021/10/12 05:11:32;;;;;;;30.93;25.77;;;10.00;99.90;;;;;;5066833;28;20456;-68
2021/10/12 05:13:59;;;;;;;28.40;25.57;;;10.00;99.90;;;;;;5095333;28;20794;-68
2021/10/12 05:16:27;;;;;;;36.83;26.43;;;10.00;99.90;;;;;;5091341;28;20457;-67
2021/10/12 05:18:57;;;;;;;33.80;27.53;;;10.00;99.90;;;;;;5094852;28;20471;-69
2021/10/12 05:21:24;;;;;;;31.73;25.20;;;10.00;99.90;;;;;;5083252;28;20480;-68
2021/10/12 05:23:52;;;;;;;30.13;27.00;;;10.00;99.90;;;;;;5088757;28;20936;-71
2021/10/12 05:26:19;;;;;;;29.13;26.57;;;10.00;99.90;;;;;;5086984;28;20465;-67
2021/10/12 05:28:46;;;;;;;28.97;25.93;;;10.00;99.90;;;;;;5089476;28;20525;-67
2021/10/12 05:31:13;;;;;;;29.13;25.80;;;10.00;99.90;;;;;;5087560;28;20900;-68
2021/10/12 05:33:40;;;;;;;29.23;26.57;;;10.00;99.90;;;;;;5085756;28;20470;-68
2021/10/12 05:36:07;;;;;;;35.03;26.70;;;10.00;99.90;;;;;;5093363;28;20834;-68
2021/10/12 05:38:34;;;;;;;30.43;27.73;;;10.00;99.90;;;;;;5088054;28;20476;-69
2021/10/12 05:41:03;;;;;;;29.13;26.63;;;10.00;99.90;;;;;;5090365;28;20525;-68
2021/10/12 05:43:30;;;;;;;31.50;26.80;;;10.00;99.90;;;;;;5083034;28;20473;-68
2021/10/12 05:45:56;;;;;;;29.53;26.80;;;10.00;99.90;;;;;;5083407;28;20809;-68
2021/10/12 05:48:23;;;;;;;32.80;26.67;;;10.00;99.90;;;;;;5089685;28;21475;-68
2021/10/12 05:50:51;;;;;;;28.63;25.93;;;10.00;99.90;;;;;;5089253;28;20478;-68
2021/10/12 05:53:25;;;;;;;28.67;26.27;;;10.00;99.90;;;;;;5091732;28;21049;-68
2021/10/12 05:55:56;;;;;;;29.13;26.70;;;10.00;99.90;;;;;;5087794;28;21062;-67
2021/10/12 05:58:32;;;;;;;30.07;26.07;;;10.00;99.90;;;;;;5082874;28;21061;-70
2021/10/12 06:01:01;;;;;;;29.07;25.90;;;10.00;99.90;;;;;;5083213;28;20573;-70
2021/10/12 06:03:28;;;;;;;31.67;27.40;;;10.00;99.90;;;;;;5084607;28;20934;-68
2021/10/12 06:05:56;;;;;;;28.13;25.67;;;10.10;99.90;;;;;;5091271;28;20564;-70
2021/10/12 06:08:23;;;;;;;26.90;24.30;;;10.10;99.90;;;;;;5086970;28;20454;-67
2021/10/12 06:10:50;;;;;;;27.63;24.80;;;10.10;99.90;;;;;;5085543;28;20498;-68
2021/10/12 06:13:17;;;;;;;28.60;25.27;;;10.10;99.90;;;;;;5086502;28;20469;-68
2021/10/12 06:15:46;;;;;;;26.67;24.10;;;10.10;99.90;;;;;;5089505;28;20559;-69
2021/10/12 06:18:13;;;;;;;26.23;23.67;;;10.10;99.90;;;;;;5086769;28;20454;-68
2021/10/12 06:20:40;;;;;;;29.53;26.37;;;10.10;99.90;;;;;;5088857;28;20477;-68
2021/10/12 06:23:08;;;;;;;26.63;24.13;;;10.10;99.90;;;;;;5078973;28;20834;-68
2021/10/12 06:25:35;;;;;;;26.50;23.83;;;10.10;99.90;;;;;;5080995;28;20462;-68
2021/10/12 06:28:03;;;;;;;33.70;26.10;;;10.10;99.90;;;;;;5094833;28;20457;-67
2021/10/12 06:30:30;;;;;;;28.00;25.10;;;10.10;99.90;;;;;;5090157;28;20476;-68
2021/10/12 06:32:58;;;;;;;29.97;26.87;;;10.10;99.90;;;;;;5085853;28;20468;-68
2021/10/12 06:35:27;;;;;;;28.97;26.57;;;10.10;99.90;;;;;;5083013;28;20473;-67
2021/10/12 06:37:54;;;;;;;29.57;26.57;;;10.20;99.90;;;;;;5084405;28;20475;-68
2021/10/12 06:40:21;;;;;;;33.20;27.80;;;10.20;99.90;;;;;;5090036;28;20864;-69
2021/10/12 06:42:47;;;;;;;27.97;25.60;;;10.20;99.90;;;;;;5091672;28;20465;-67
2021/10/12 06:45:16;;;;;;;29.03;26.33;;;10.20;99.90;;;;;;5091622;28;20463;-68
2021/10/12 06:47:43;;;;;;;37.47;26.93;;;10.20;99.90;;;;;;5090012;28;20839;-68
2021/10/12 06:50:11;;;;;;;28.47;25.20;;;10.20;99.90;;;;;;5091258;28;20482;-70
2021/10/12 06:52:39;;;;;;;28.40;25.60;;;10.20;99.90;;;;;;5089602;28;20468;-68
2021/10/12 06:55:08;;;;;;;41.13;27.67;;;10.20;99.90;;;;;;5087272;28;20457;-68
2021/10/12 06:57:36;;;;;;;34.83;27.17;;;10.20;99.90;;;;;;5091691;28;21030;-69
2021/10/12 07:00:03;;;;;;;29.77;26.67;;;10.30;99.90;;;;;;5089647;28;20493;-69
2021/10/12 07:02:30;;;;;;;29.80;26.93;;;10.40;99.90;;;;;;5085858;28;20454;-70
2021/10/12 07:04:57;;;;;;;30.70;27.90;;;10.40;99.90;;;;;;5092138;28;20472;-70
2021/10/12 07:07:26;;;;;;;34.37;27.73;;;10.40;99.90;;;;;;5090466;28;20457;-70
2021/10/12 07:09:52;;;;;;;36.63;28.70;;;10.40;99.90;;;;;;5085600;28;20469;-67
2021/10/12 07:12:19;;;;;;;30.93;27.80;;;10.50;99.90;;;;;;5088348;28;20465;-68
2021/10/12 07:14:47;;;;;;;33.50;27.97;;;10.60;99.90;;;;;;5083810;28;20983;-68
2021/10/12 07:17:14;;;;;;;36.20;28.00;;;10.60;99.90;;;;;;5083314;28;20465;-69
2021/10/12 07:19:40;;;;;;;34.13;29.03;;;10.60;99.90;;;;;;5090054;28;20538;-70
2021/10/12 07:22:07;;;;;;;30.70;27.33;;;10.60;99.90;;;;;;5088713;28;20465;-68
2021/10/12 07:24:35;;;;;;;36.00;28.00;;;10.70;99.90;;;;;;5090026;28;20458;-68
2021/10/12 07:27:03;;;;;;;28.87;25.90;;;10.60;99.90;;;;;;5079801;28;20998;-67
2021/10/12 07:29:30;;;;;;;36.83;28.87;;;10.60;99.90;;;;;;5074451;28;20469;-68
2021/10/12 07:31:57;;;;;;;36.57;27.00;;;10.70;99.90;;;;;;5083585;28;20547;-70
2021/10/12 07:34:24;;;;;;;33.53;29.90;;;10.70;99.90;;;;;;5089289;28;20846;-68
2021/10/12 07:36:50;;;;;;;35.83;30.20;;;10.70;99.90;;;;;;5086149;28;20458;-70
2021/10/12 07:39:18;;;;;;;35.17;30.87;;;10.80;99.90;;;;;;5083030;28;20466;-67
2021/10/12 07:41:46;;;;;;;40.70;30.97;;;10.80;99.90;;;;;;5082829;28;20918;-70
2021/10/12 07:44:13;;;;;;;38.23;30.27;;;10.80;99.90;;;;;;5086291;28;20493;-67
2021/10/12 07:46:40;;;;;;;36.90;30.93;;;10.70;99.90;;;;;;5088376;28;20462;-69
2021/10/12 07:49:07;;;;;;;33.60;30.33;;;10.70;99.90;;;;;;5086147;28;20485;-67
2021/10/12 07:51:33;;;;;;;32.17;28.97;;;10.70;99.90;;;;;;5085384;28;20453;-69
2021/10/12 07:54:01;;;;;;;32.43;29.00;;;10.60;99.90;;;;;;5085806;28;20540;-68
2021/10/12 07:56:37;;;;;;;33.40;29.60;;;10.60;99.90;;;;;;5089955;28;20464;-68
2021/10/12 07:59:06;;;;;;;33.93;28.40;;;10.50;99.90;;;;;;5091251;28;20480;-71
2021/10/12 08:01:34;;;;;;;33.37;30.10;;;10.50;99.90;;;;;;5075736;28;20526;-68
2021/10/12 08:04:01;;;;;;;34.13;30.93;;;10.60;99.90;;;;;;5082796;28;20480;-68
2021/10/12 08:06:28;;;;;;;31.40;28.60;;;10.60;99.90;;;;;;5084275;28;20461;-70
2021/10/12 08:08:56;;;;;;;32.77;29.03;;;10.60;99.90;;;;;;5085246;28;21196;-68
2021/10/12 08:11:24;;;;;;;30.47;27.27;;;10.70;99.90;;;;;;5088415;28;20467;-68
2021/10/12 08:13:55;;;;;;;32.27;28.57;;;10.70;99.90;;;;;;5093442;28;20523;-68
2021/10/12 08:16:29;;;;;;;32.63;29.53;;;10.70;99.90;;;;;;5086677;28;20497;-71
2021/10/12 08:18:56;;;;;;;32.17;29.03;;;10.70;99.90;;;;;;5088439;28;20465;-68
2021/10/12 08:21:23;;;;;;;33.57;29.13;;;10.80;99.90;;;;;;5093555;28;20484;-68
2021/10/12 08:23:52;;;;;;;32.60;29.60;;;10.90;99.90;;;;;;5091818;28;20461;-69
2021/10/12 08:26:19;;;;;;;33.77;30.20;;;10.90;99.90;;;;;;5089431;28;20469;-68
2021/10/12 08:28:46;;;;;;;32.50;29.17;;;10.90;99.90;;;;;;5096305;28;20472;-70
2021/10/12 08:31:14;;;;;;;31.97;28.17;;;10.80;99.90;;;;;;5091996;28;20473;-69
2021/10/12 08:33:42;;;;;;;36.27;32.50;;;10.90;99.90;;;;;;5085450;28;20903;-68
2021/10/12 08:36:10;;;;;;;32.37;29.00;;;11.00;99.90;;;;;;5090776;28;20469;-69
2021/10/12 08:38:37;;;;;;;33.03;29.63;;;11.10;99.90;;;;;;5091741;28;20494;-69
2021/10/12 08:41:06;;;;;;;31.80;28.83;;;11.10;99.90;;;;;;5089213;28;20526;-69
2021/10/12 08:43:34;;;;;;;30.50;27.50;;;11.10;99.90;;;;;;5085557;28;20491;-70
2021/10/12 08:46:02;;;;;;;30.33;27.70;;;11.30;99.90;;;;;;5092333;28;20828;-69
2021/10/12 08:48:31;;;;;;;31.93;28.87;;;11.30;99.90;;;;;;5093206;28;20929;-69
2021/10/12 08:51:00;;;;;;;32.23;29.13;;;11.30;99.90;;;;;;5089675;28;20481;-70
2021/10/12 08:53:29;;;;;;;32.43;29.13;;;11.30;99.90;;;;;;5089901;28;20457;-69
2021/10/12 08:55:56;;;;;;;33.13;29.93;;;11.20;99.90;;;;;;5086994;28;20464;-69
2021/10/12 08:58:24;;;;;;;32.13;29.37;;;11.20;99.90;;;;;;5087412;28;20485;-69
2021/10/12 09:01:04;;;;;;;39.07;30.57;;;11.20;99.90;;;;;;5064612;28;20497;-69
2021/10/12 09:06:30;;;;;;;34.73;31.30;;;11.20;99.90;;;;;;5065202;28;20522;-71
2021/10/12 09:08:59;;;;;;;35.53;32.10;;;11.10;99.90;;;;;;5064610;28;20466;-70
2021/10/12 09:11:28;;;;;;;34.63;31.67;;;11.10;99.90;;;;;;5069306;28;20477;-69
2021/10/12 09:14:01;;;;;;;34.77;31.00;;;11.10;99.90;;;;;;5069638;28;20806;-69
2021/10/12 09:16:37;;;;;;;34.93;30.90;;;11.10;99.90;;;;;;5066279;28;20458;-71
2021/10/12 09:19:06;;;;;;;35.77;32.07;;;11.10;99.90;;;;;;5067726;28;20460;-71
2021/10/12 09:21:36;;;;;;;35.67;32.27;;;11.20;99.90;;;;;;5070694;28;20482;-70
2021/10/12 09:24:09;;;;;;;36.40;33.10;;;11.30;99.90;;;;;;5071782;28;20827;-69
2021/10/12 09:26:39;;;;;;;36.10;32.13;;;11.40;99.90;;;;;;5067449;28;20466;-72
2021/10/12 09:29:11;;;;;;;33.70;30.43;;;11.60;99.90;;;;;;5065722;28;20515;-70
2021/10/12 09:31:41;;;;;;;32.37;29.23;;;11.70;99.90;;;;;;5071215;28;20454;-70
2021/10/12 09:34:09;;;;;;;33.60;30.10;;;12.00;99.90;;;;;;5059061;28;20466;-72
2021/10/12 09:36:39;;;;;;;34.10;30.60;;;12.00;99.90;;;;;;5063871;28;20459;-69
2021/10/12 09:39:09;;;;;;;32.53;29.60;;;12.10;99.90;;;;;;5056193;28;20495;-69
2021/10/12 09:41:36;;;;;;;33.67;30.20;;;12.10;99.90;;;;;;5062861;28;21330;-69
2021/10/12 09:44:13;;;;;;;34.40;31.20;;;12.10;99.90;;;;;;5064742;28;20463;-68
2021/10/12 09:46:41;;;;;;;46.17;31.00;;;12.20;99.90;;;;;;5065490;28;20474;-69
2021/10/12 09:49:17;;;;;;;33.50;30.67;;;12.10;99.90;;;;;;5066402;28;20565;-71
2021/10/12 09:52:04;;;;;;;33.50;29.90;;;12.20;99.90;;;;;;5064383;28;20992;-68
2021/10/12 09:54:33;;;;;;;35.70;32.23;;;12.10;99.90;;;;;;5061332;28;20533;-71
2021/10/12 09:57:01;;;;;;;34.33;31.17;;;12.10;99.90;;;;;;5055019;28;20464;-72
2021/10/12 09:59:29;;;;;;;34.43;31.43;;;12.10;99.90;;;;;;5073242;28;20985;-71
2021/10/12 10:01:56;;;;;;;34.83;31.23;;;12.10;99.90;;;;;;5079362;28;21208;-69
2021/10/12 10:04:25;;;;;;;34.80;31.27;;;12.10;99.90;;;;;;5080931;28;20462;-69
2021/10/12 10:06:54;;;;;;;33.27;29.80;;;12.10;99.90;;;;;;5084203;28;20461;-69
2021/10/12 10:09:23;;;;;;;38.50;29.33;;;12.20;99.90;;;;;;5088318;28;20481;-71
2021/10/12 10:11:51;;;;;;;32.83;29.37;;;12.20;99.90;;;;;;5080587;28;20554;-70
2021/10/12 10:14:19;;;;;;;35.10;31.43;;;12.30;99.90;;;;;;5086244;28;20841;-71
2021/10/12 10:16:49;;;;;;;33.43;30.10;;;12.40;99.90;;;;;;5088000;28;20869;-69
2021/10/12 10:19:18;;;;;;;33.90;30.73;;;12.40;99.90;;;;;;5082305;28;20540;-70
2021/10/12 10:21:49;;;;;;;43.63;30.80;;;12.30;99.90;;;;;;5083737;28;20500;-70
2021/10/12 10:24:23;;;;;;;35.30;31.17;;;12.30;99.90;;;;;;5083591;28;20462;-68
2021/10/12 10:26:52;;;;;;;35.37;31.70;;;12.30;99.90;;;;;;5078322;28;20472;-70
2021/10/12 10:29:22;;;;;;;38.37;31.37;;;12.40;99.90;;;;;;5084639;28;20890;-69
2021/10/12 10:31:52;;;;;;;36.40;32.50;;;12.40;99.90;;;;;;5088538;28;20555;-69
2021/10/12 10:34:37;;;;;;;34.23;30.60;;;12.40;99.90;;;;;;5084431;28;20541;-69
2021/10/12 10:37:29;;;;;;;36.30;32.53;;;12.40;99.90;;;;;;5084436;28;20810;-70
2021/10/12 10:39:59;;;;;;;34.30;30.93;;;12.40;99.90;;;;;;5084892;28;20458;-68
2021/10/12 10:42:59;;;;;;;33.93;29.33;;;12.50;99.90;;;;;;5086374;28;20482;-68
2021/10/12 10:45:45;;;;;;;35.30;31.50;;;12.60;99.90;;;;;;5076764;28;20458;-68
2021/10/12 10:48:14;;;;;;;33.33;29.47;;;12.60;99.90;;;;;;5082703;28;20461;-70
2021/10/12 10:50:42;;;;;;;31.63;28.73;;;12.70;99.90;;;;;;5085147;28;21000;-69
2021/10/12 10:53:10;;;;;;;35.27;30.77;;;12.90;99.90;;;;;;5094654;28;20461;-71
2021/10/12 10:55:39;;;;;;;34.03;30.30;;;12.90;99.90;;;;;;5078421;28;20462;-70
2021/10/12 10:58:10;;;;;;;42.73;32.13;;;13.00;99.90;;;;;;5078516;28;20481;-68
2021/10/12 11:00:39;;;;;;;42.30;34.23;;;13.00;99.90;;;;;;5087393;28;20881;-68
2021/10/12 11:03:29;;;;;;;44.13;34.83;;;13.00;99.90;;;;;;5081491;28;20493;-69
2021/10/12 11:05:57;;;;;;;48.43;34.03;;;13.00;99.90;;;;;;5075629;28;20613;-68
2021/10/12 11:08:26;;;;;;;36.97;33.07;;;12.90;99.90;;;;;;5087120;28;20465;-69
2021/10/12 11:10:56;;;;;;;38.27;33.03;;;12.90;99.90;;;;;;5078335;28;20462;-69
2021/10/12 11:13:32;;;;;;;45.73;32.07;;;12.90;99.90;;;;;;5085642;28;20502;-69
2021/10/12 11:15:59;;;;;;;37.50;32.20;;;12.70;99.90;;;;;;5079113;28;20981;-69
2021/10/12 11:18:27;;;;;;;47.37;32.83;;;12.70;99.90;;;;;;5089802;28;20465;-69
2021/10/12 11:20:57;;;;;;;34.47;31.27;;;12.60;99.90;;;;;;5087810;28;20979;-69
2021/10/12 11:23:29;;;;;;;32.57;29.60;;;12.50;99.90;;;;;;5083190;28;20466;-69
2021/10/12 11:26:09;;;;;;;31.40;28.40;;;12.50;99.90;;;;;;5084236;28;20465;-70
2021/10/12 11:28:38;;;;;;;30.27;27.80;;;12.40;99.90;;;;;;5080817;28;20972;-70
2021/10/12 11:31:08;;;;;;;31.00;28.43;;;12.40;99.90;;;;;;5083792;28;20489;-70
2021/10/12 11:33:41;;;;;;;30.83;28.00;;;12.50;99.90;;;;;;5090477;28;20458;-70
2021/10/12 11:36:09;;;;;;;32.03;29.00;;;12.60;99.90;;;;;;5091509;28;20883;-70
2021/10/12 11:38:40;;;;;;;32.10;28.67;;;12.50;99.90;;;;;;5091171;28;20457;-71
2021/10/12 11:41:19;;;;;;;31.70;28.30;;;12.60;99.90;;;;;;5091205;28;20532;-70
2021/10/12 11:43:47;;;;;;;30.33;27.27;;;12.70;99.90;;;;;;5086662;28;20462;-71
2021/10/12 11:46:21;;;;;;;29.03;26.53;;;12.80;99.90;;;;;;5085492;28;20459;-69
2021/10/12 11:48:49;;;;;;;34.00;27.67;;;12.80;99.90;;;;;;5087842;28;20463;-70
2021/10/12 11:51:19;;;;;;;29.70;26.80;;;12.80;99.90;;;;;;5080884;28;20465;-69
2021/10/12 11:53:47;;;;;;;30.53;27.60;;;12.90;99.90;;;;;;5089155;28;20462;-70
2021/10/12 11:56:15;;;;;;;31.83;28.97;;;12.90;99.90;;;;;;5087968;28;20461;-72
2021/10/12 11:58:44;;;;;;;29.60;26.80;;;13.10;99.90;;;;;;5085220;28;20486;-71
2021/10/12 12:01:15;;;;;;;31.03;28.20;;;13.20;99.90;;;;;;5078409;28;20463;-71
2021/10/12 12:03:43;;;;;;;33.03;29.83;;;13.20;99.90;;;;;;5085110;28;20500;-72
2021/10/12 12:06:12;;;;;;;30.23;27.40;;;13.20;99.90;;;;;;5087536;28;20466;-69
2021/10/12 12:08:42;;;;;;;30.87;27.67;;;13.20;99.90;;;;;;5091338;28;20826;-69
2021/10/12 12:11:10;;;;;;;31.40;28.67;;;13.10;99.90;;;;;;5079985;28;20461;-69
2021/10/12 12:13:37;;;;;;;29.27;26.67;;;13.30;99.90;;;;;;5094353;28;20457;-69
2021/10/12 12:16:06;;;;;;;29.53;26.60;;;13.50;99.90;;;;;;5090685;28;20457;-72
2021/10/12 12:18:41;;;;;;;29.50;26.60;;;13.60;99.90;;;;;;5093531;28;20492;-69
2021/10/12 12:21:08;;;;;;;27.20;24.97;;;13.80;99.90;;;;;;5095308;28;20704;-69
2021/10/12 12:23:39;;;;;;;29.17;26.57;;;13.80;99.90;;;;;;5091893;28;20464;-69
2021/10/12 12:26:08;;;;;;;27.43;25.33;;;13.90;99.90;;;;;;5098800;28;20467;-69
2021/10/12 12:28:35;;;;;;;32.80;28.47;;;13.80;99.90;;;;;;5096742;28;20456;-69
2021/10/12 12:31:18;;;;;;;31.10;28.13;;;13.80;99.90;;;;;;5087361;28;20542;-71
2021/10/12 12:33:45;;;;;;;28.13;25.93;;;14.00;99.90;;;;;;5090475;28;20538;-68
2021/10/12 12:36:12;;;;;;;29.57;26.73;;;14.10;99.90;;;;;;5090787;28;20469;-70
2021/10/12 12:38:42;;;;;;;28.03;25.87;;;14.20;99.90;;;;;;5092311;28;20462;-68